Time;durP1;ratioP1;P1;durP2;ratioP2;P2;SDS_P1;SDS_P2;PMS_P1;PMS_P2;Temp;Humidity;BMP_temperature;BMP_pressure;BME280_temperature;BME280_humidity;BME280_pressure;Samples;Min_cycle;Max_cycle;Signal;HPM_P1;HPM_P2
2023/06/03 00:01:27;;;;;;;;;14.00;10.67;;;;;19.74;42.53;101313.47;4996756;28;45517;-71
2023/06/03 00:03:54;;;;;;;;;17.33;13.33;;;;;19.52;42.70;101288.34;4979918;28;45491;-73
2023/06/03 00:06:24;;;;;;;;;12.00;9.00;;;;;19.62;43.25;101308.44;4995106;28;45970;-72
2023/06/03 00:08:53;;;;;;;;;12.00;9.67;;;;;19.59;43.28;101313.84;4994382;28;46273;-72
2023/06/03 00:11:19;;;;;;;;;9.00;9.00;;;;;19.34;43.22;101274.66;4997758;28;45402;-72
2023/06/03 00:13:44;;;;;;;;;10.33;10.33;;;;;19.43;43.66;101294.78;4995408;28;45778;-72
2023/06/03 00:16:10;;;;;;;;;12.67;11.00;;;;;19.27;43.77;101278.38;4994924;28;45460;-72
2023/06/03 00:18:36;;;;;;;;;11.00;9.67;;;;;19.41;43.97;101292.19;4993177;28;47566;-72
2023/06/03 00:21:02;;;;;;;;;10.33;9.00;;;;;19.34;43.98;101295.00;4994482;28;45306;-72
2023/06/03 00:23:28;;;;;;;;;14.33;10.33;;;;;19.40;44.19;101303.69;4994949;28;45850;-72
2023/06/03 00:25:54;;;;;;;;;9.67;9.67;;;;;19.17;44.40;101275.09;4995017;28;45525;-72
2023/06/03 00:28:20;;;;;;;;;14.67;10.67;;;;;19.18;44.37;101283.91;4981707;28;47898;-72
2023/06/03 00:30:45;;;;;;;;;14.33;12.00;;;;;19.26;44.57;101300.53;4980879;28;45476;-72
2023/06/03 00:33:11;;;;;;;;;12.00;9.67;;;;;19.32;44.65;101318.09;4991687;28;45499;-72
2023/06/03 00:35:38;;;;;;;;;13.33;12.33;;;;;19.25;44.93;101301.44;4979410;28;45481;-72
2023/06/03 00:38:03;;;;;;;;;11.67;11.33;;;;;19.30;44.74;101304.84;4976950;28;46671;-73
2023/06/03 00:40:29;;;;;;;;;10.67;8.67;;;;;19.21;45.00;101289.16;4995514;28;45685;-72
2023/06/03 00:42:55;;;;;;;;;13.00;10.67;;;;;19.18;44.99;101283.91;4996290;28;45828;-72
2023/06/03 00:45:21;;;;;;;;;13.67;10.33;;;;;19.17;45.39;101282.16;4998376;28;45272;-72
2023/06/03 00:47:47;;;;;;;;;11.00;10.00;;;;;19.21;45.52;101279.38;4977658;28;47701;-72
2023/06/03 00:50:14;;;;;;;;;10.00;10.00;;;;;19.22;45.38;101290.88;4995088;28;45854;-72
2023/06/03 00:52:40;;;;;;;;;14.00;12.67;;;;;18.90;45.72;101242.13;4995420;28;45483;-71
2023/06/03 00:55:07;;;;;;;;;17.00;12.33;;;;;19.09;46.10;101278.84;4995239;28;45416;-72
2023/06/03 00:57:33;;;;;;;;;13.00;10.33;;;;;19.05;45.60;101276.25;4977018;28;46637;-71
2023/06/03 00:59:59;;;;;;;;;11.67;10.33;;;;;19.00;45.94;101269.31;4995434;28;45364;-71
2023/06/03 01:02:25;;;;;;;;;14.00;13.67;;;;;19.10;46.08;101285.88;4977028;28;45514;-72
2023/06/03 01:04:55;;;;;;;;;16.00;13.33;;;;;18.99;46.29;101270.22;4998019;28;45476;-73
2023/06/03 01:07:41;;;;;;;;;14.00;9.67;;;;;18.83;46.15;101256.44;4995371;28;46516;-72
2023/06/03 01:10:22;;;;;;;;;17.00;13.00;;;;;18.98;46.27;101274.66;4993285;28;45515;-73
2023/06/03 01:13:09;;;;;;;;;13.00;10.67;;;;;18.74;46.39;101241.56;4978603;28;45494;-73
2023/06/03 01:15:36;;;;;;;;;17.67;16.00;;;;;18.81;46.47;101255.59;4998453;28;45552;-72
2023/06/03 01:18:05;;;;;;;;;17.00;14.00;;;;;18.91;46.64;101283.69;4977229;28;46399;-72
2023/06/03 01:20:32;;;;;;;;;11.33;11.33;;;;;18.82;47.08;101262.69;4994751;28;45366;-73
2023/06/03 01:23:23;;;;;;;;;13.33;13.33;;;;;18.89;46.58;101281.94;4977071;28;45754;-74
2023/06/03 01:25:56;;;;;;;;;14.33;12.00;;;;;18.85;46.85;101267.91;4977236;28;45484;-73
2023/06/03 01:28:23;;;;;;;;;16.00;11.33;;;;;18.73;46.81;101252.25;4976446;28;46265;-73
2023/06/03 01:30:50;;;;;;;;;14.33;13.33;;;;;18.84;47.00;101267.03;4995205;28;45479;-72
2023/06/03 01:33:23;;;;;;;;;17.67;13.00;;;;;18.82;47.21;101275.94;4997141;28;45462;-72
2023/06/03 01:35:56;;;;;;;;;13.00;8.67;;;;;18.80;47.18;101272.44;4994910;28;45503;-72
2023/06/03 01:38:26;;;;;;;;;17.33;14.00;;;;;18.77;47.43;101262.78;4994086;28;45504;-72
2023/06/03 01:40:52;;;;;;;;;19.00;14.00;;;;;18.80;47.58;101278.63;4994905;28;45643;-72
2023/06/03 01:43:18;;;;;;;;;15.00;14.33;;;;;18.62;47.31;101241.88;4998883;28;45392;-72
2023/06/03 01:45:45;;;;;;;;;13.33;12.00;;;;;18.60;47.47;101254.28;4981426;28;45372;-71
2023/06/03 01:48:11;;;;;;;;;13.33;11.67;;;;;18.73;47.60;101269.03;4980861;28;46885;-72
2023/06/03 01:50:44;;;;;;;;;16.00;12.00;;;;;18.69;47.67;101263.81;4998832;28;45467;-73
2023/06/03 01:53:10;;;;;;;;;13.33;11.67;;;;;18.50;47.89;101240.38;4995215;28;45404;-73
2023/06/03 01:55:37;;;;;;;;;15.00;13.00;;;;;18.64;47.79;101267.44;4976546;28;45339;-72
2023/06/03 01:58:03;;;;;;;;;15.33;13.67;;;;;18.63;48.32;101278.97;4976221;28;45458;-72
2023/06/03 02:00:29;;;;;;;;;12.67;12.67;;;;;18.59;48.05;101269.34;4994185;28;45868;-73
2023/06/03 02:02:55;;;;;;;;;20.67;16.00;;;;;18.48;47.96;101257.22;4994229;28;45514;-73
2023/06/03 02:05:21;;;;;;;;;14.67;13.00;;;;;18.58;48.26;101267.59;4976267;28;45396;-72
2023/06/03 02:07:47;;;;;;;;;11.00;10.67;;;;;18.50;48.02;101272.19;4975753;28;46844;-72
2023/06/03 02:10:12;;;;;;;;;19.00;12.67;;;;;18.55;48.09;101272.97;4993325;28;45357;-72
2023/06/03 02:12:39;;;;;;;;;16.67;13.33;;;;;18.28;48.30;101232.03;4998289;28;45291;-72
2023/06/03 02:15:07;;;;;;;;;20.00;15.00;;;;;18.41;48.42;101254.72;4996833;28;45534;-72
2023/06/03 02:17:32;;;;;;;;;17.00;14.33;;;;;18.39;48.45;101250.38;4993788;28;46075;-72
2023/06/03 02:19:58;;;;;;;;;15.67;11.33;;;;;18.39;48.46;101260.97;4976382;28;45440;-71
2023/06/03 02:22:26;;;;;;;;;18.00;16.00;;;;;18.46;48.47;101269.66;4975738;28;45466;-72
2023/06/03 02:24:53;;;;;;;;;16.33;16.00;;;;;18.38;48.96;101269.81;4994096;28;45494;-71
2023/06/03 02:27:24;;;;;;;;;17.33;13.00;;;;;18.36;49.09;101263.69;4975689;28;46684;-72
2023/06/03 02:29:51;;;;;;;;;17.67;15.33;;;;;18.14;49.02;101242.06;4976294;28;45578;-72
2023/06/03 02:32:18;;;;;;;;;16.33;12.67;;;;;18.17;49.10;101245.50;4996071;28;45399;-73
2023/06/03 02:34:44;;;;;;;;;17.33;13.33;;;;;18.28;49.14;101269.16;4994892;28;45263;-73
2023/06/03 02:37:10;;;;;;;;;16.33;11.67;;;;;18.23;48.91;101257.78;4993115;28;45761;-73
2023/06/03 02:39:37;;;;;;;;;15.67;13.33;;;;;18.21;49.29;101263.09;4997891;28;45587;-73
2023/06/03 02:42:02;;;;;;;;;12.67;12.33;;;;;18.16;49.40;101248.22;4979970;28;45468;-72
2023/06/03 02:44:30;;;;;;;;;13.67;12.67;;;;;18.11;49.37;101240.34;4997867;28;45544;-72
2023/06/03 02:46:56;;;;;;;;;17.33;12.33;;;;;18.07;49.38;101243.97;4994740;28;46663;-72
2023/06/03 02:49:22;;;;;;;;;17.67;16.33;;;;;18.22;49.53;101263.97;4993295;28;45444;-71
2023/06/03 02:51:48;;;;;;;;;17.67;14.67;;;;;18.17;49.47;101256.09;4976006;28;45687;-72
2023/06/03 02:54:13;;;;;;;;;16.00;13.33;;;;;18.04;49.31;101246.69;4998085;28;45183;-71
2023/06/03 02:56:40;;;;;;;;;13.33;12.00;;;;;18.14;49.73;101260.63;4997888;28;45960;-72
2023/06/03 02:59:05;;;;;;;;;16.33;14.67;;;;;18.13;49.90;101262.41;4995749;28;45242;-72
2023/06/03 03:01:50;;;;;;;;;14.67;13.67;;;;;18.14;49.73;101273.88;4993774;28;45488;-73
2023/06/03 03:04:42;;;;;;;;;15.67;14.00;;;;;18.08;49.78;101258.09;4979112;28;45736;-72
2023/06/03 03:07:08;;;;;;;;;15.00;13.33;;;;;17.80;50.02;101210.94;4995377;28;45938;-72
2023/06/03 03:09:35;;;;;;;;;16.00;13.33;;;;;17.89;50.12;101236.38;4993596;28;45407;-72
2023/06/03 03:12:18;;;;;;;;;21.00;17.33;;;;;17.91;50.30;101238.09;4993810;28;45402;-72
2023/06/03 03:14:45;;;;;;;;;13.33;12.67;;;;;17.77;49.86;101217.16;4975476;28;45381;-73
2023/06/03 03:17:11;;;;;;;;;15.33;13.67;;;;;18.02;49.96;101256.44;4993565;28;45616;-72
2023/06/03 03:19:37;;;;;;;;;14.67;14.67;;;;;18.05;50.14;101256.38;4993630;28;45445;-72
2023/06/03 03:22:03;;;;;;;;;16.67;15.00;;;;;18.02;50.12;101257.31;4977901;28;45479;-72
2023/06/03 03:24:30;;;;;;;;;22.33;15.67;;;;;18.02;50.21;101265.25;4997488;28;45408;-72
2023/06/03 03:26:56;;;;;;;;;16.67;14.00;;;;;17.97;50.19;101253.88;4997152;28;45572;-72
2023/06/03 03:29:24;;;;;;;;;13.67;12.67;;;;;17.90;50.28;101249.63;5000172;28;45786;-71
2023/06/03 03:31:57;;;;;;;;;15.00;12.33;;;;;17.83;50.29;101232.09;4978886;28;45562;-73
2023/06/03 03:34:22;;;;;;;;;11.67;10.67;;;;;17.90;50.12;101240.78;4978736;28;45452;-74
2023/06/03 03:36:48;;;;;;;;;18.00;16.33;;;;;17.99;50.29;101262.69;4996200;28;46411;-71
2023/06/03 03:39:14;;;;;;;;;16.33;15.67;;;;;17.99;50.53;101261.81;4978464;28;45471;-72
2023/06/03 03:41:43;;;;;;;;;19.67;14.00;;;;;17.94;50.32;101256.59;4996661;28;45539;-72
2023/06/03 03:44:09;;;;;;;;;11.67;11.67;;;;;17.82;50.21;101237.41;4996399;28;45397;-71
2023/06/03 03:46:35;;;;;;;;;19.00;13.67;;;;;17.83;50.39;101247.13;4996046;28;45877;-71
2023/06/03 03:49:03;;;;;;;;;20.33;14.33;;;;;17.93;50.26;101260.16;4996107;28;45480;-72
2023/06/03 03:51:28;;;;;;;;;14.00;12.00;;;;;17.92;50.53;101271.66;4979047;28;45853;-72
2023/06/03 03:53:54;;;;;;;;;15.33;12.33;;;;;17.83;50.45;101255.94;4996301;28;45520;-72
2023/06/03 03:56:23;;;;;;;;;9.33;9.33;;;;;17.88;50.22;101266.44;4978053;28;47651;-72
2023/06/03 03:58:49;;;;;;;;;17.33;15.33;;;;;17.93;50.38;101268.09;4977790;28;45902;-72
2023/06/03 04:01:18;;;;;;;;;14.33;12.33;;;;;17.92;50.22;101278.75;4996228;28;45633;-72
2023/06/03 04:03:49;;;;;;;;;15.67;12.67;;;;;17.84;50.08;101267.41;4995924;28;45815;-72
2023/06/03 04:06:37;;;;;;;;;19.33;15.67;;;;;17.87;50.54;101276.19;4996472;28;45545;-72
2023/06/03 04:09:07;;;;;;;;;14.00;13.00;;;;;17.91;50.47;101277.84;4979131;28;45550;-71
2023/06/03 04:11:42;;;;;;;;;12.00;12.00;;;;;17.91;50.46;101276.97;4981271;28;45423;-72
2023/06/03 04:14:16;;;;;;;;;15.67;12.00;;;;;17.75;50.78;101244.59;4995980;28;45450;-72
2023/06/03 04:16:54;;;;;;;;;16.67;14.00;;;;;17.92;50.31;101273.44;4995655;28;46153;-72
2023/06/03 04:19:30;;;;;;;;;12.67;12.67;;;;;17.80;50.47;101258.63;4995233;28;45781;-72
2023/06/03 04:21:57;;;;;;;;;15.67;13.67;;;;;17.90;50.45;101272.59;4996345;28;45384;-72
2023/06/03 04:24:26;;;;;;;;;17.00;15.33;;;;;17.88;50.44;101269.09;4995954;28;45351;-72
2023/06/03 04:26:53;;;;;;;;;17.33;14.67;;;;;17.94;50.70;101285.75;4998392;28;45875;-72
2023/06/03 04:29:19;;;;;;;;;16.67;12.00;;;;;17.95;50.42;101276.03;4996646;28;45428;-71
2023/06/03 04:31:45;;;;;;;;;15.67;13.33;;;;;17.82;50.51;101253.31;4995350;28;45549;-74
2023/06/03 04:34:10;;;;;;;;;16.33;15.00;;;;;17.95;50.20;101276.88;5000131;28;45424;-71
2023/06/03 04:36:36;;;;;;;;;15.00;13.67;;;;;17.98;50.43;101281.25;4998329;28;46137;-71
2023/06/03 04:39:05;;;;;;;;;12.67;11.67;;;;;17.98;50.22;101286.56;4994576;28;45504;-71
2023/06/03 04:41:32;;;;;;;;;16.67;15.00;;;;;18.01;50.11;101291.81;4995081;28;45599;-71
2023/06/03 04:43:59;;;;;;;;;19.00;17.00;;;;;17.92;50.13;101276.97;4995528;28;45383;-73
2023/06/03 04:46:31;;;;;;;;;21.00;16.00;;;;;17.89;50.21;101265.53;4995113;28;45676;-72
2023/06/03 04:48:59;;;;;;;;;18.33;14.00;;;;;18.08;50.04;101298.75;4995405;28;45693;-72
2023/06/03 04:51:29;;;;;;;;;17.67;15.67;;;;;18.07;50.09;101296.97;4997588;28;45671;-72
2023/06/03 04:53:57;;;;;;;;;17.67;12.00;;;;;17.98;49.76;101282.13;4999535;28;45582;-72
2023/06/03 04:56:24;;;;;;;;;16.00;14.67;;;;;18.10;49.79;101296.91;4999164;28;46079;-72
2023/06/03 04:58:54;;;;;;;;;8.33;6.33;;;;;18.10;49.97;101290.75;4981250;28;45522;-72
2023/06/03 05:01:23;;;;;;;;;18.00;16.00;;;;;18.21;50.11;101307.31;4980915;28;45364;-72
2023/06/03 05:03:49;;;;;;;;;24.33;16.67;;;;;18.12;49.81;101291.59;4995611;28;45768;-72
2023/06/03 05:06:15;;;;;;;;;20.00;16.33;;;;;18.21;49.79;101304.66;4995049;28;46326;-72
2023/06/03 05:08:40;;;;;;;;;22.00;19.00;;;;;18.13;49.38;101282.75;4994865;28;45495;-72
2023/06/03 05:11:07;;;;;;;;;22.67;18.33;;;;;18.28;49.65;101310.72;4998659;28;45501;-72
2023/06/03 05:13:34;;;;;;;;;20.00;18.67;;;;;18.13;50.01;101317.22;4981768;28;45338;-72
2023/06/03 05:16:00;;;;;;;;;16.00;13.00;;;;;18.15;49.88;101312.72;4981508;28;47178;-72
2023/06/03 05:18:29;;;;;;;;;16.00;14.67;;;;;18.06;49.77;101279.34;4999240;28;45385;-72
2023/06/03 05:20:55;;;;;;;;;16.67;13.00;;;;;18.27;49.36;101307.19;4999188;28;45522;-72
2023/06/03 05:23:20;;;;;;;;;15.33;13.67;;;;;18.30;49.12;101298.28;4980944;28;45741;-72
2023/06/03 05:25:46;;;;;;;;;20.67;14.00;;;;;18.40;48.94;101308.66;4997744;28;46247;-72
2023/06/03 05:28:11;;;;;;;;;20.00;15.33;;;;;18.38;49.20;101294.56;4999322;28;45351;-72
2023/06/03 05:30:37;;;;;;;;;18.33;16.00;;;;;18.38;48.99;101286.59;4997943;28;45283;-72
2023/06/03 05:33:03;;;;;;;;;15.67;15.33;;;;;18.55;49.04;101304.78;4999501;28;45359;-72
2023/06/03 05:35:28;;;;;;;;;21.33;16.67;;;;;18.53;48.93;101297.78;4996846;28;46236;-72
2023/06/03 05:37:54;;;;;;;;;18.00;14.00;;;;;18.67;48.80;101308.09;4995039;28;45399;-71
2023/06/03 05:40:20;;;;;;;;;18.67;15.33;;;;;18.67;48.69;101302.78;4993192;28;45360;-71
2023/06/03 05:42:48;;;;;;;;;16.00;15.67;;;;;18.33;48.74;101237.22;4994629;28;45498;-72
2023/06/03 05:45:14;;;;;;;;;11.67;10.00;;;;;18.62;48.45;101282.53;4993101;28;46241;-73
2023/06/03 05:47:40;;;;;;;;;13.67;13.00;;;;;18.82;48.29;101303.34;4994703;28;46322;-71
2023/06/03 05:50:06;;;;;;;;;17.00;14.67;;;;;18.88;48.14;101301.44;4994063;28;45499;-73
2023/06/03 05:52:32;;;;;;;;;11.33;11.33;;;;;18.92;48.19;101306.66;4995175;28;45748;-73
2023/06/03 05:54:57;;;;;;;;;21.67;20.33;;;;;18.98;48.38;101300.31;4994264;28;45488;-72
2023/06/03 05:57:24;;;;;;;;;21.00;19.67;;;;;18.99;47.95;101287.03;4993164;28;45390;-73
2023/06/03 05:59:51;;;;;;;;;11.33;9.33;;;;;19.07;47.49;101292.13;4994088;28;45436;-73
2023/06/03 06:02:18;;;;;;;;;11.33;10.33;;;;;18.98;48.29;101261.41;4981310;28;45568;-74
2023/06/03 06:04:44;;;;;;;;;21.33;19.33;;;;;19.31;47.73;101317.22;4998614;28;45310;-78
2023/06/03 06:07:10;;;;;;;;;17.67;14.67;;;;;19.13;47.95;101297.31;4998617;28;45462;-76
2023/06/03 06:09:36;;;;;;;;;13.33;13.00;;;;;19.28;47.89;101318.16;4994070;28;45816;-76
2023/06/03 06:12:02;;;;;;;;;16.67;14.67;;;;;19.33;47.26;101320.69;4994700;28;45610;-76
2023/06/03 06:14:28;;;;;;;;;16.33;16.33;;;;;19.31;47.92;101324.31;4979100;28;47605;-72
2023/06/03 06:16:54;;;;;;;;;21.00;17.33;;;;;18.80;47.84;101227.34;4975750;28;45650;-76
2023/06/03 06:19:21;;;;;;;;;18.67;16.67;;;;;18.94;47.98;101282.75;4993283;28;45459;-75
2023/06/03 06:21:47;;;;;;;;;14.33;14.33;;;;;19.30;48.96;101318.13;4994098;28;45486;-74
2023/06/03 06:24:14;;;;;;;;;15.67;10.67;;;;;19.52;47.36;101321.09;4996951;28;45956;-75
2023/06/03 06:26:41;;;;;;;;;14.33;13.67;;;;;19.54;47.31;101298.03;4997950;28;45499;-76
2023/06/03 06:29:06;;;;;;;;;15.00;12.67;;;;;19.78;47.22;101320.44;4980070;28;45468;-75
2023/06/03 06:31:32;;;;;;;;;16.00;12.00;;;;;19.95;46.46;101324.44;4994357;28;45484;-73
2023/06/03 06:34:00;;;;;;;;;22.00;17.67;;;;;19.71;46.87;101276.34;4993475;28;46221;-75
2023/06/03 06:36:29;;;;;;;;;15.00;12.00;;;;;20.06;46.31;101322.38;4996873;28;45434;-76
2023/06/03 06:38:55;;;;;;;;;19.00;12.67;;;;;20.13;46.32;101307.97;4987776;28;45544;-75
2023/06/03 06:41:22;;;;;;;;;15.33;12.33;;;;;20.12;45.85;101292.91;4998795;28;45598;-76
2023/06/03 06:43:47;;;;;;;;;12.67;9.33;;;;;20.33;46.36;101310.03;4996365;28;46235;-75
2023/06/03 06:46:14;;;;;;;;;13.00;11.67;;;;;20.47;45.50;101304.31;4992454;28;45495;-76
2023/06/03 06:48:42;;;;;;;;;14.33;13.33;;;;;20.58;45.45;101307.56;4993255;28;45783;-77
2023/06/03 06:51:11;;;;;;;;;14.00;11.67;;;;;20.44;44.79;101276.00;4993832;28;45481;-74
2023/06/03 06:53:37;;;;;;;;;17.67;15.67;;;;;20.70;44.51;101315.16;4992300;28;46044;-74
2023/06/03 06:56:06;;;;;;;;;21.33;17.67;;;;;20.80;44.61;101331.72;4992596;28;45442;-75
2023/06/03 06:58:41;;;;;;;;;13.67;11.67;;;;;20.66;44.98;101328.63;4992541;28;45548;-75
2023/06/03 07:01:08;;;;;;;;;17.33;15.00;;;;;20.56;45.24;101308.53;4993501;28;45611;-75
2023/06/03 07:03:36;;;;;;;;;15.33;12.67;;;;;20.47;45.36;101312.31;4993402;28;45838;-78
2023/06/03 07:06:01;;;;;;;;;12.67;11.00;;;;;20.43;44.97;101305.31;4996911;28;45420;-74
2023/06/03 07:08:27;;;;;;;;;18.67;15.00;;;;;20.78;45.16;101336.22;4993806;28;45421;-75
2023/06/03 07:11:04;;;;;;;;;16.00;14.00;;;;;20.52;45.67;101300.63;4994914;28;45399;-75
2023/06/03 07:13:30;;;;;;;;;14.33;12.33;;;;;20.71;45.09;101302.72;4995351;28;45949;-73
2023/06/03 07:16:00;;;;;;;;;11.00;11.00;;;;;20.79;44.95;101289.19;4994219;28;45753;-73
2023/06/03 07:18:28;;;;;;;;;15.00;11.67;;;;;20.96;44.31;101302.84;4976315;28;45484;-77
2023/06/03 07:20:55;;;;;;;;;15.33;13.33;;;;;21.09;44.60;101303.28;4993653;28;45478;-76
2023/06/03 07:23:24;;;;;;;;;16.00;15.00;;;;;20.86;43.84;101248.16;4993758;28;46321;-73
2023/06/03 07:25:57;;;;;;;;;12.00;11.00;;;;;21.21;43.70;101300.22;4976043;28;45757;-76
2023/06/03 07:28:33;;;;;;;;;14.00;11.67;;;;;21.41;43.60;101314.72;4975757;28;45476;-76
2023/06/03 07:31:03;;;;;;;;;16.00;14.67;;;;;21.30;43.86;101288.38;4975970;28;45515;-74
2023/06/03 07:33:34;;;;;;;;;19.00;15.00;;;;;21.29;44.81;101308.84;4985089;28;46383;-76
2023/06/03 07:36:02;;;;;;;;;12.33;11.67;;;;;21.39;44.66;101315.63;4993844;28;45906;-73
2023/06/03 07:38:37;;;;;;;;;13.00;12.33;;;;;21.46;43.81;101300.31;4993830;28;45489;-75
2023/06/03 07:41:06;;;;;;;;;17.67;13.67;;;;;21.48;43.81;101324.25;4975926;28;45744;-75
2023/06/03 07:43:40;;;;;;;;;10.33;10.33;;;;;21.32;44.12;101282.09;4992243;28;46293;-77
2023/06/03 07:46:07;;;;;;;;;15.00;13.00;;;;;21.41;43.90;101296.94;4991136;28;45447;-76
2023/06/03 07:48:41;;;;;;;;;22.33;17.67;;;;;21.30;43.72;101283.94;4991473;28;45787;-73
2023/06/03 07:51:09;;;;;;;;;19.33;14.33;;;;;21.51;43.54;101329.47;4992825;28;45470;-77
2023/06/03 07:53:41;;;;;;;;;17.00;15.33;;;;;21.49;43.31;101323.31;4992655;28;45507;-75
2023/06/03 07:56:12;;;;;;;;;17.00;14.33;;;;;21.45;43.56;101325.22;4992930;28;45384;-74
2023/06/03 07:58:38;;;;;;;;;17.00;14.00;;;;;21.53;43.24;101312.50;4993073;28;45432;-72
2023/06/03 08:01:04;;;;;;;;;16.67;16.33;;;;;21.46;43.39;101308.31;4992149;28;45684;-75
2023/06/03 08:03:32;;;;;;;;;16.00;13.00;;;;;21.57;43.12;101319.47;4991901;28;45648;-76
2023/06/03 08:05:57;;;;;;;;;15.00;12.33;;;;;21.51;42.69;101303.69;4991905;28;45464;-74
2023/06/03 08:08:30;;;;;;;;;14.33;13.00;;;;;21.62;42.49;101294.44;4997472;28;45476;-74
2023/06/03 08:10:56;;;;;;;;;15.67;12.33;;;;;21.80;42.35;101315.09;4994733;28;45584;-73
2023/06/03 08:13:23;;;;;;;;;17.33;14.00;;;;;21.64;42.20;101276.59;4995693;28;45683;-74
2023/06/03 08:15:48;;;;;;;;;16.67;15.33;;;;;21.84;42.62;101299.88;4996003;28;45459;-74
2023/06/03 08:18:32;;;;;;;;;15.67;13.33;;;;;21.96;42.37;101315.44;4996661;28;45509;-75
2023/06/03 08:21:02;;;;;;;;;14.67;13.33;;;;;22.02;42.16;101316.09;4997162;28;45470;-84
2023/06/03 08:23:27;;;;;;;;;16.00;12.33;;;;;21.96;41.71;101294.97;4996222;28;45828;-76
2023/06/03 08:25:53;;;;;;;;;18.33;14.33;;;;;21.62;41.74;101243.78;4995843;28;45420;-79
2023/06/03 08:28:18;;;;;;;;;15.67;15.67;;;;;21.59;41.63;101210.13;4996728;28;45503;-77
2023/06/03 08:30:44;;;;;;;;;14.33;14.33;;;;;21.97;41.99;101280.72;4996368;28;45506;-76
2023/06/03 08:33:10;;;;;;;;;18.33;16.00;;;;;22.02;41.26;101294.75;4996093;28;45413;-76
2023/06/03 08:35:35;;;;;;;;;13.00;13.00;;;;;22.01;41.50;101305.47;4977881;28;45472;-76
2023/06/03 08:38:02;;;;;;;;;12.67;10.67;;;;;21.98;41.80;101279.78;4995847;28;45421;-77
2023/06/03 08:40:33;;;;;;;;;17.67;13.67;;;;;22.03;41.72;101283.16;4996659;28;45384;-79
2023/06/03 08:43:03;;;;;;;;;14.67;13.33;;;;;22.09;41.99;101292.75;4994583;28;45507;-77
2023/06/03 08:45:39;;;;;;;;;16.67;14.33;;;;;22.15;40.99;101287.16;4995587;28;45385;-75
2023/06/03 08:48:30;;;;;;;;;14.33;11.33;;;;;22.19;41.33;101282.59;4999386;28;45397;-77
2023/06/03 08:51:04;;;;;;;;;16.33;15.33;;;;;22.32;41.69;101293.69;4998031;28;45571;-77
2023/06/03 08:53:49;;;;;;;;;12.33;12.00;;;;;22.20;41.38;101266.53;4977655;28;46660;-74
2023/06/03 08:56:21;;;;;;;;;18.67;13.67;;;;;22.17;41.37;101252.44;4978029;28;45828;-76
2023/06/03 08:58:53;;;;;;;;;14.33;12.67;;;;;21.93;41.38;101207.09;4978104;28;45535;-76
2023/06/03 09:01:32;;;;;;;;;17.33;12.00;;;;;22.50;42.14;101281.44;4997609;28;45467;-74
2023/06/03 09:04:00;;;;;;;;;15.67;13.00;;;;;22.55;43.04;101295.47;4996991;28;45595;-75
2023/06/03 09:06:26;;;;;;;;;15.00;13.00;;;;;22.61;42.04;101295.22;4995523;28;45520;-79
2023/06/03 09:08:54;;;;;;;;;11.33;11.00;;;;;22.22;41.88;101210.47;4995555;28;45314;-76
2023/06/03 09:11:20;;;;;;;;;15.67;14.33;;;;;22.52;40.50;101247.53;5000240;28;45480;-77
2023/06/03 09:13:46;;;;;;;;;12.67;12.67;;;;;22.30;42.10;101227.03;5000259;28;46080;-80
2023/06/03 09:16:13;;;;;;;;;16.67;12.67;;;;;22.67;43.21;101280.78;4997824;28;45512;-76
2023/06/03 09:18:39;;;;;;;;;13.67;11.00;;;;;22.73;41.89;101284.06;4995312;28;45354;-76
2023/06/03 09:21:09;;;;;;;;;18.33;13.67;;;;;22.85;42.16;101290.69;4977597;28;45389;-76
2023/06/03 09:23:38;;;;;;;;;19.67;16.67;;;;;22.86;41.17;101281.78;4995500;28;45978;-77
2023/06/03 09:26:04;;;;;;;;;18.33;14.00;;;;;22.76;40.36;101265.25;4979452;28;45372;-79
2023/06/03 09:28:30;;;;;;;;;19.00;13.33;;;;;22.80;40.20;101295.34;4981545;28;45882;-72
2023/06/03 09:30:56;;;;;;;;;17.67;15.33;;;;;22.68;40.40;101267.34;4998954;28;45425;-75
2023/06/03 09:33:22;;;;;;;;;14.00;14.00;;;;;22.69;40.57;101279.78;4998124;28;46448;-73
2023/06/03 09:36:20;;;;;;;;;16.33;15.33;;;;;22.71;40.42;101293.94;4997728;28;45481;-76
2023/06/03 09:38:46;;;;;;;;;14.33;12.67;;;;;22.79;39.73;101294.50;5003325;28;45369;-78
2023/06/03 09:41:19;;;;;;;;;18.00;15.00;;;;;22.72;39.34;101297.47;4986400;28;45456;-78
2023/06/03 09:44:05;;;;;;;;;16.67;13.67;;;;;22.60;40.21;101298.84;4999514;28;46854;-79
2023/06/03 09:46:34;;;;;;;;;13.00;11.00;;;;;22.59;40.36;101287.28;4999610;28;45348;-79
2023/06/03 09:49:16;;;;;;;;;15.67;14.00;;;;;22.74;39.94;101300.97;5000550;28;45440;-77
2023/06/03 09:51:47;;;;;;;;;18.33;13.33;;;;;22.67;39.34;101286.13;4997774;28;45838;-79
2023/06/03 09:54:15;;;;;;;;;10.00;9.33;;;;;22.72;39.97;101285.00;4995725;28;46154;-77
2023/06/03 09:56:42;;;;;;;;;11.00;11.00;;;;;22.64;38.52;101260.41;4996517;28;45540;-81
2023/06/03 09:59:23;;;;;;;;;13.00;12.67;;;;;22.94;38.93;101300.16;4982216;28;45381;-81
2023/06/03 10:01:51;;;;;;;;;18.33;10.67;;;;;22.96;41.76;101279.59;4996389;28;45797;-79
2023/06/03 10:04:37;;;;;;;;;11.33;11.33;;;;;23.15;38.63;101287.75;4998310;28;45535;-78
2023/06/03 10:07:18;;;;;;;;;12.33;11.33;;;;;23.04;37.82;101259.69;4981157;28;45730;-81
2023/06/03 10:09:46;;;;;;;;;13.00;12.33;;;;;23.13;37.98;101279.78;4974945;28;45440;-78
2023/06/03 10:12:27;;;;;;;;;15.33;12.67;;;;;23.14;38.02;101273.53;5004653;28;45293;-79
2023/06/03 10:14:55;;;;;;;;;13.67;12.00;;;;;23.24;38.74;101292.72;4996624;28;46623;-81
2023/06/03 10:17:21;;;;;;;;;14.00;12.33;;;;;23.25;37.38;101295.34;4996226;28;45449;-83
2023/06/03 10:19:47;;;;;;;;;13.67;11.67;;;;;23.23;37.63;101290.94;4999193;28;45420;-79
2023/06/03 10:22:17;;;;;;;;;12.33;11.33;;;;;23.19;37.59;101282.22;4997665;28;45646;-72
2023/06/03 10:24:46;;;;;;;;;16.33;16.00;;;;;23.27;37.61;101269.38;4998797;28;46251;-75
2023/06/03 10:27:13;;;;;;;;;14.00;11.67;;;;;23.39;37.57;101281.34;4998839;28;45406;-74
2023/06/03 10:29:39;;;;;;;;;14.33;14.00;;;;;23.24;37.23;101258.81;4993570;28;45768;-69
2023/06/03 10:32:10;;;;;;;;;22.00;17.00;;;;;23.32;37.35;101265.66;4994837;28;45491;-70
2023/06/03 10:34:39;;;;;;;;;13.00;12.00;;;;;23.37;37.16;101277.00;4997715;28;45507;-70
2023/06/03 10:37:06;;;;;;;;;14.00;13.00;;;;;23.42;37.27;101272.34;4977276;28;45844;-78
2023/06/03 10:39:32;;;;;;;;;15.33;15.00;;;;;23.39;36.95;101253.75;4994656;28;45454;-77
2023/06/03 10:42:12;;;;;;;;;14.33;14.00;;;;;23.57;37.04;101277.03;4975687;28;46023;-71
2023/06/03 10:44:40;;;;;;;;;18.33;15.00;;;;;23.54;37.08;101276.28;4988759;28;46683;-75
2023/06/03 10:47:13;;;;;;;;;16.33;15.00;;;;;23.58;36.90;101289.44;4975248;28;45772;-71
2023/06/03 10:50:05;;;;;;;;;20.00;16.67;;;;;23.56;36.95;101277.09;4975572;28;45492;-72
2023/06/03 10:53:07;;;;;;;;;19.00;16.00;;;;;23.53;37.65;101282.56;4967922;28;45503;-71
2023/06/03 10:55:38;;;;;;;;;17.67;15.67;;;;;23.60;37.22;101276.88;4992847;28;46157;-73
2023/06/03 10:58:15;;;;;;;;;14.00;12.00;;;;;23.70;38.03;101267.53;4992865;28;45545;-72
2023/06/03 11:00:56;;;;;;;;;17.67;14.67;;;;;23.87;37.55;101282.88;4993386;28;45650;-71
2023/06/03 11:03:51;;;;;;;;;16.00;16.00;;;;;23.85;37.04;101270.50;4993034;28;45443;-77
2023/06/03 11:06:17;;;;;;;;;15.67;14.00;;;;;23.89;36.97;101280.09;4994554;28;46358;-74
2023/06/03 11:09:05;;;;;;;;;16.67;14.00;;;;;23.86;36.80;101270.41;4977233;28;45436;-76
2023/06/03 11:11:43;;;;;;;;;17.00;15.00;;;;;23.94;36.67;101264.69;4971121;28;45646;-79
2023/06/03 11:14:29;;;;;;;;;17.67;14.33;;;;;23.98;37.03;101252.06;4976001;28;45565;-79
2023/06/03 11:16:59;;;;;;;;;13.67;13.00;;;;;24.22;36.19;101275.00;4995401;28;45558;-78
2023/06/03 11:19:31;;;;;;;;;19.00;14.67;;;;;24.35;35.82;101264.63;4995638;28;46053;-76